Time;durP1;ratioP1;P1;durP2;ratioP2;P2;SDS_P1;SDS_P2;PMS_P1;PMS_P2;Temp;Humidity;BMP_temperature;BMP_pressure;BME280_temperature;BME280_humidity;BME280_pressure;Samples;Min_cycle;Max_cycle;Signal;HPM_P1;HPM_P2
2022/01/31 00:01:03;;;;;;;22.38;4.45;;;3.70;99.90;;;;;;5020974;28;20060;-83
2022/01/31 00:03:30;;;;;;;29.17;4.45;;;3.70;99.90;;;;;;5064832;28;20415;-82
2022/01/31 00:05:56;;;;;;;21.25;3.50;;;3.80;99.90;;;;;;5049107;28;20056;-82
2022/01/31 00:08:24;;;;;;;27.75;5.07;;;3.70;99.90;;;;;;5041620;28;20049;-82
2022/01/31 00:10:50;;;;;;;18.52;3.83;;;3.70;99.90;;;;;;5043697;28;20513;-83
2022/01/31 00:13:21;;;;;;;28.80;5.40;;;3.70;99.90;;;;;;5023331;28;20174;-82
2022/01/31 00:15:53;;;;;;;20.85;3.92;;;3.70;99.90;;;;;;5021988;28;20049;-82
2022/01/31 00:18:19;;;;;;;28.38;4.80;;;3.60;99.90;;;;;;5027376;28;20124;-82
2022/01/31 00:20:45;;;;;;;32.72;5.40;;;3.60;99.90;;;;;;5031768;28;20132;-83
2022/01/31 00:23:10;;;;;;;28.38;4.30;;;3.50;99.90;;;;;;5014762;28;20041;-82
2022/01/31 00:25:36;;;;;;;23.63;4.72;;;3.60;99.90;;;;;;5027510;28;20106;-82
2022/01/31 00:28:02;;;;;;;22.35;4.38;;;3.60;99.90;;;;;;5060318;28;20192;-82
2022/01/31 00:30:28;;;;;;;23.80;5.28;;;3.60;99.90;;;;;;5010149;28;20050;-82
2022/01/31 00:32:53;;;;;;;26.20;5.07;;;3.60;99.90;;;;;;5033935;28;20490;-82
2022/01/31 00:35:19;;;;;;;22.73;5.22;;;3.70;99.90;;;;;;5027948;28;20099;-82
2022/01/31 00:37:45;;;;;;;24.52;4.88;;;3.70;99.90;;;;;;5050299;28;20578;-81
2022/01/31 00:40:12;;;;;;;29.58;5.63;;;3.70;99.90;;;;;;5029924;28;20040;-82
2022/01/31 00:42:38;;;;;;;29.08;5.57;;;3.80;99.90;;;;;;5016613;28;20088;-82
2022/01/31 00:45:58;;;;;;;25.52;5.38;;;3.80;99.90;;;;;;5026822;28;20387;-83
2022/01/31 00:48:06;;;;;;;27.42;6.47;;;3.80;99.90;;;;;;5029841;28;20084;-82
2022/01/31 00:50:39;;;;;;;25.60;5.60;;;3.80;99.90;;;;;;5030684;28;20094;-82
2022/01/31 00:53:05;;;;;;;21.58;4.93;;;3.90;99.90;;;;;;5013876;28;20053;-81
2022/01/31 00:55:31;;;;;;;18.75;5.45;;;4.00;99.90;;;;;;5041437;28;20037;-82
2022/01/31 00:57:57;;;;;;;24.30;6.18;;;3.90;99.90;;;;;;5023922;28;20041;-82
2022/01/31 01:00:22;;;;;;;26.77;6.43;;;3.90;99.90;;;;;;5021410;28;20059;-82
2022/01/31 01:02:48;;;;;;;26.55;7.10;;;3.80;99.90;;;;;;5014129;28;20049;-82
2022/01/31 01:05:15;;;;;;;24.95;6.95;;;3.70;99.90;;;;;;5048259;28;20068;-81
2022/01/31 01:07:45;;;;;;;22.77;6.43;;;3.70;99.90;;;;;;5030639;28;20083;-82
2022/01/31 01:10:16;;;;;;;19.00;6.07;;;3.70;99.90;;;;;;5030207;28;20054;-81
2022/01/31 01:12:42;;;;;;;21.20;6.03;;;3.70;99.90;;;;;;5047650;28;20129;-82
2022/01/31 01:15:09;;;;;;;20.75;6.65;;;3.70;99.90;;;;;;5034729;28;20041;-82
2022/01/31 01:17:35;;;;;;;21.40;6.72;;;3.60;99.90;;;;;;5038024;28;20057;-83
2022/01/31 01:20:03;;;;;;;25.80;7.32;;;3.60;99.90;;;;;;5047601;28;20041;-83
2022/01/31 01:22:28;;;;;;;19.85;6.88;;;3.60;99.90;;;;;;5054317;28;20052;-82
2022/01/31 01:24:54;;;;;;;23.08;7.65;;;3.60;99.90;;;;;;5062630;28;20402;-83
2022/01/31 01:27:20;;;;;;;25.35;8.05;;;3.60;99.90;;;;;;5043786;28;20119;-82
2022/01/31 01:29:47;;;;;;;30.45;9.30;;;3.60;99.90;;;;;;5013898;28;20127;-82
2022/01/31 01:32:13;;;;;;;25.58;8.55;;;3.50;99.90;;;;;;5018935;28;20499;-82
2022/01/31 01:34:39;;;;;;;28.25;9.45;;;3.50;99.90;;;;;;5045905;28;20049;-82
2022/01/31 01:37:05;;;;;;;29.95;9.57;;;3.50;99.90;;;;;;5033184;28;20103;-82
2022/01/31 01:39:31;;;;;;;26.20;10.52;;;3.50;99.90;;;;;;5068081;28;20042;-82
2022/01/31 01:41:57;;;;;;;27.30;10.85;;;3.40;99.90;;;;;;5033868;28;20120;-83
2022/01/31 01:44:40;;;;;;;32.92;11.48;;;3.40;99.90;;;;;;5058585;28;20124;-83
2022/01/31 01:47:06;;;;;;;28.50;10.85;;;3.30;99.90;;;;;;5034607;28;20045;-82
2022/01/31 01:49:32;;;;;;;31.15;13.48;;;3.30;99.90;;;;;;5050749;28;20460;-83
2022/01/31 01:51:57;;;;;;;35.63;11.10;;;3.20;99.90;;;;;;5002477;28;20049;-82
2022/01/31 01:54:23;;;;;;;31.30;12.77;;;3.20;99.90;;;;;;5031604;28;20043;-83
2022/01/31 01:56:49;;;;;;;32.22;12.45;;;3.10;99.90;;;;;;5017254;28;20033;-84
2022/01/31 01:59:15;;;;;;;34.63;13.18;;;3.10;99.90;;;;;;5035205;28;20040;-82
2022/01/31 02:01:40;;;;;;;31.45;11.73;;;3.00;99.90;;;;;;5049959;28;20048;-83
2022/01/31 02:04:06;;;;;;;36.53;13.45;;;2.90;99.90;;;;;;5014294;28;20140;-83
2022/01/31 02:06:32;;;;;;;33.80;13.70;;;2.90;99.90;;;;;;5027227;28;20056;-83
2022/01/31 02:08:59;;;;;;;38.83;14.07;;;2.90;99.90;;;;;;5026383;28;20134;-83
2022/01/31 02:11:24;;;;;;;27.48;12.73;;;2.90;99.90;;;;;;5046558;28;20138;-84
2022/01/31 02:13:50;;;;;;;37.67;14.40;;;2.80;99.90;;;;;;5045176;28;20050;-83
2022/01/31 02:16:17;;;;;;;28.85;13.30;;;2.80;99.90;;;;;;5036398;28;20487;-84
2022/01/31 02:18:53;;;;;;;29.73;13.38;;;2.80;99.90;;;;;;5060085;28;20123;-83
2022/01/31 02:21:19;;;;;;;30.13;14.88;;;2.80;99.90;;;;;;5029344;28;20749;-84
2022/01/31 02:23:45;;;;;;;33.30;14.45;;;2.80;99.90;;;;;;5054547;28;20077;-83
2022/01/31 02:26:11;;;;;;;29.20;14.20;;;2.80;99.90;;;;;;5042196;28;20487;-84
2022/01/31 02:28:38;;;;;;;26.98;14.20;;;2.80;99.90;;;;;;5049024;28;20052;-84
2022/01/31 02:31:06;;;;;;;34.60;14.60;;;2.80;99.90;;;;;;5031718;28;20048;-85
2022/01/31 02:33:32;;;;;;;27.80;14.20;;;2.80;99.90;;;;;;5062717;28;20037;-84
2022/01/31 02:36:00;;;;;;;37.10;16.13;;;2.80;99.90;;;;;;5028601;28;20171;-84
2022/01/31 02:38:27;;;;;;;36.15;14.75;;;2.80;99.90;;;;;;5049955;28;20036;-84
2022/01/31 02:40:53;;;;;;;28.58;13.23;;;2.80;99.90;;;;;;5020899;28;20102;-84
2022/01/31 02:43:38;;;;;;;31.58;15.82;;;2.80;99.90;;;;;;5030043;28;20056;-85
2022/01/31 02:46:04;;;;;;;31.27;15.30;;;2.90;99.90;;;;;;5014187;28;20139;-85
2022/01/31 02:48:33;;;;;;;29.02;13.38;;;2.90;99.90;;;;;;5007890;28;20132;-84
2022/01/31 02:51:00;;;;;;;24.83;14.15;;;2.90;99.90;;;;;;5044388;28;20057;-84
2022/01/31 02:53:31;;;;;;;31.08;14.93;;;2.90;99.90;;;;;;5004558;28;20061;-85
2022/01/31 02:56:01;;;;;;;29.65;14.00;;;3.00;99.90;;;;;;5048589;28;20046;-85
2022/01/31 02:58:30;;;;;;;20.25;11.45;;;3.10;99.90;;;;;;5044103;28;20049;-84
2022/01/31 03:00:57;;;;;;;21.40;12.18;;;3.00;99.90;;;;;;5055561;28;20056;-84
2022/01/31 03:03:24;;;;;;;26.35;12.18;;;3.00;99.90;;;;;;5057610;28;20060;-84
2022/01/31 03:05:50;;;;;;;19.70;10.88;;;3.00;99.90;;;;;;5018196;28;20043;-84
2022/01/31 03:08:16;;;;;;;20.27;11.30;;;3.10;99.90;;;;;;5060511;28;20048;-84
2022/01/31 03:10:42;;;;;;;21.35;10.48;;;3.10;99.90;;;;;;5006994;28;20046;-84
2022/01/31 03:13:08;;;;;;;22.90;10.80;;;3.20;99.90;;;;;;5035555;28;20111;-85
2022/01/31 03:15:36;;;;;;;17.45;9.88;;;3.10;99.90;;;;;;5034712;28;20127;-86
2022/01/31 03:18:04;;;;;;;22.45;10.07;;;3.10;99.90;;;;;;5036963;28;20102;-85
2022/01/31 03:20:40;;;;;;;;;;;;;;;;;;;;;
2022/01/31 03:23:06;;;;;;;17.63;10.02;;;3.20;99.90;;;;;;5043480;28;20049;-85
2022/01/31 03:25:35;;;;;;;21.92;9.43;;;3.20;99.90;;;;;;5043678;28;20102;-85
2022/01/31 03:28:00;;;;;;;19.30;9.68;;;3.20;99.90;;;;;;5052010;28;20053;-85
2022/01/31 03:30:32;;;;;;;19.98;8.95;;;3.20;99.90;;;;;;5072127;28;20214;-84
2022/01/31 03:32:58;;;;;;;16.50;8.57;;;3.30;99.90;;;;;;5048077;28;20875;-84
2022/01/31 03:35:27;;;;;;;20.08;9.02;;;3.30;99.90;;;;;;5039769;28;20045;-84
2022/01/31 03:37:52;;;;;;;17.50;8.68;;;3.40;99.90;;;;;;5050115;28;20049;-84
2022/01/31 03:40:19;;;;;;;16.27;9.57;;;3.50;99.90;;;;;;5052024;28;20053;-85
2022/01/31 03:42:48;;;;;;;20.33;8.02;;;3.50;99.90;;;;;;5033314;28;20045;-85
2022/01/31 03:45:13;;;;;;;16.98;7.97;;;3.60;99.90;;;;;;5066378;28;20124;-85
2022/01/31 03:47:46;;;;;;;17.45;8.13;;;3.70;99.90;;;;;;5037977;28;20150;-85
2022/01/31 03:50:15;;;;;;;20.27;7.28;;;3.80;99.90;;;;;;5038691;28;20050;-84
2022/01/31 03:52:42;;;;;;;22.23;6.60;;;3.90;99.90;;;;;;5075397;28;20045;-84
2022/01/31 03:55:09;;;;;;;18.00;6.75;;;4.20;99.90;;;;;;5049836;28;20433;-83
2022/01/31 03:57:35;;;;;;;17.48;5.28;;;4.20;99.90;;;;;;5038455;28;20041;-84
2022/01/31 04:00:07;;;;;;;19.42;6.05;;;4.40;99.90;;;;;;5055217;28;20107;-84
2022/01/31 04:02:32;;;;;;;20.63;5.55;;;4.50;99.90;;;;;;5076358;28;20083;-84
2022/01/31 04:04:58;;;;;;;22.85;5.30;;;4.50;99.90;;;;;;5047571;28;20080;-84
2022/01/31 04:07:24;;;;;;;29.58;6.43;;;4.60;99.90;;;;;;5044607;28;20108;-84
2022/01/31 04:09:50;;;;;;;25.42;5.13;;;4.70;99.90;;;;;;5052706;28;20049;-84
2022/01/31 04:12:15;;;;;;;32.28;7.00;;;4.80;99.90;;;;;;5049585;28;20073;-85
2022/01/31 04:14:44;;;;;;;29.02;3.80;;;4.90;99.90;;;;;;5033423;28;20372;-85
2022/01/31 04:17:10;;;;;;;31.38;5.43;;;5.00;99.90;;;;;;5045200;28;20060;-85
2022/01/31 04:19:39;;;;;;;27.70;4.55;;;5.10;99.90;;;;;;5066158;28;20095;-85
2022/01/31 04:22:16;;;;;;;24.08;4.70;;;5.10;99.90;;;;;;5053407;28;20049;-84
2022/01/31 04:24:47;;;;;;;22.00;3.78;;;5.10;99.90;;;;;;5047611;28;20057;-85
2022/01/31 04:27:18;;;;;;;23.92;3.47;;;5.10;99.90;;;;;;5040910;28;20220;-85
2022/01/31 04:29:46;;;;;;;17.48;2.85;;;5.10;99.90;;;;;;5037927;28;20123;-84
2022/01/31 04:32:12;;;;;;;16.88;2.47;;;5.10;99.90;;;;;;5048558;28;20148;-84
2022/01/31 04:34:40;;;;;;;13.43;2.25;;;5.00;99.90;;;;;;5064048;28;20120;-85
2022/01/31 04:37:06;;;;;;;19.33;2.53;;;5.00;99.90;;;;;;5044180;28;20547;-85
2022/01/31 04:39:34;;;;;;;12.48;2.20;;;4.90;99.90;;;;;;5066495;28;20156;-86
2022/01/31 04:42:01;;;;;;;15.85;2.05;;;4.80;99.90;;;;;;5047391;28;20051;-85
2022/01/31 04:44:26;;;;;;;19.63;2.40;;;4.80;99.90;;;;;;5046963;28;20052;-85
2022/01/31 04:46:54;;;;;;;12.05;2.25;;;4.80;99.90;;;;;;5035641;28;20135;-84
2022/01/31 04:49:23;;;;;;;21.70;2.28;;;4.70;99.90;;;;;;5049948;28;20060;-85
2022/01/31 04:51:49;;;;;;;18.55;2.80;;;4.70;99.90;;;;;;5022755;28;20044;-84
2022/01/31 04:54:15;;;;;;;17.48;2.95;;;4.60;99.90;;;;;;5014504;28;20049;-85
2022/01/31 04:56:42;;;;;;;18.35;2.75;;;4.70;99.90;;;;;;5040490;28;20095;-84
2022/01/31 04:59:08;;;;;;;26.42;3.40;;;4.60;99.90;;;;;;5049326;28;20071;-83
2022/01/31 05:01:35;;;;;;;19.52;2.70;;;4.60;99.90;;;;;;5028904;28;20041;-83
2022/01/31 05:04:06;;;;;;;25.80;3.10;;;4.50;99.90;;;;;;5049827;28;20041;-83
2022/01/31 05:06:36;;;;;;;28.75;3.22;;;4.50;99.90;;;;;;5040318;28;20048;-84
2022/01/31 05:09:02;;;;;;;18.58;2.75;;;4.50;99.90;;;;;;5038816;28;20053;-83
2022/01/31 05:11:28;;;;;;;27.48;3.25;;;4.50;99.90;;;;;;5037725;28;20107;-84
2022/01/31 05:13:54;;;;;;;21.58;3.97;;;4.50;99.90;;;;;;5056482;28;20053;-83
2022/01/31 05:16:22;;;;;;;24.60;3.15;;;4.50;99.90;;;;;;5035721;28;20073;-84
2022/01/31 05:18:48;;;;;;;26.55;3.08;;;4.50;99.90;;;;;;5049061;28;20471;-85
2022/01/31 05:21:14;;;;;;;24.08;3.20;;;4.50;99.90;;;;;;5064833;28;20052;-84
2022/01/31 05:23:40;;;;;;;33.13;4.32;;;4.50;99.90;;;;;;5015474;28;20384;-83
2022/01/31 05:26:06;;;;;;;21.15;2.83;;;4.50;99.90;;;;;;5047914;28;20072;-84
2022/01/31 05:28:32;;;;;;;17.00;2.35;;;4.50;99.90;;;;;;5048502;28;20052;-84
2022/01/31 05:30:58;;;;;;;12.18;2.05;;;4.70;99.90;;;;;;5062739;28;20128;-84
2022/01/31 05:33:23;;;;;;;10.35;1.73;;;4.60;99.90;;;;;;5044813;28;20124;-83
2022/01/31 05:35:49;;;;;;;11.35;1.30;;;4.60;99.90;;;;;;5051596;28;20041;-83
2022/01/31 05:38:15;;;;;;;12.98;1.60;;;4.40;99.90;;;;;;5031898;28;20063;-83
2022/01/31 05:40:43;;;;;;;11.13;1.45;;;4.30;99.90;;;;;;5038402;28;20132;-84
2022/01/31 05:43:11;;;;;;;17.48;1.90;;;4.40;99.90;;;;;;5039619;28;20037;-84
2022/01/31 05:45:36;;;;;;;13.65;1.42;;;4.40;99.90;;;;;;5048189;28;20487;-84
2022/01/31 05:48:02;;;;;;;3.70;0.93;;;4.40;99.90;;;;;;5048597;28;20053;-85
2022/01/31 05:50:28;;;;;;;4.90;1.15;;;4.20;99.90;;;;;;5036905;28;20052;-85
2022/01/31 05:52:54;;;;;;;6.78;0.80;;;4.20;99.90;;;;;;5049974;28;20147;-83
2022/01/31 05:55:20;;;;;;;7.80;0.95;;;4.20;99.90;;;;;;5032518;28;20095;-86
2022/01/31 05:57:45;;;;;;;9.93;1.25;;;4.10;99.90;;;;;;5036750;28;20145;-83
2022/01/31 06:00:12;;;;;;;7.65;0.95;;;4.10;99.90;;;;;;5079396;28;20044;-83
2022/01/31 06:02:39;;;;;;;8.90;1.55;;;4.10;99.90;;;;;;5047282;28;20057;-84
2022/01/31 06:05:05;;;;;;;8.15;1.48;;;4.10;99.90;;;;;;5056599;28;20057;-84
2022/01/31 06:07:31;;;;;;;12.93;1.88;;;4.10;99.90;;;;;;5056577;28;20482;-83
2022/01/31 06:09:56;;;;;;;15.30;2.47;;;4.20;99.90;;;;;;5058315;28;20111;-84
2022/01/31 06:12:23;;;;;;;11.48;1.40;;;4.20;99.90;;;;;;5025990;28;20072;-84
2022/01/31 06:14:48;;;;;;;7.65;1.02;;;4.20;99.90;;;;;;5047790;28;20534;-84
2022/01/31 06:17:14;;;;;;;6.63;1.00;;;4.20;99.90;;;;;;5048666;28;20124;-84
2022/01/31 06:19:40;;;;;;;12.77;1.15;;;4.20;99.90;;;;;;5034414;28;20053;-78
2022/01/31 06:22:06;;;;;;;10.52;1.10;;;4.10;99.90;;;;;;5045675;28;20076;-82
2022/01/31 06:24:31;;;;;;;11.68;1.42;;;4.20;99.90;;;;;;5037256;28;20048;-84
2022/01/31 06:26:58;;;;;;;14.43;1.88;;;4.20;99.90;;;;;;5044398;28;20077;-84
2022/01/31 06:29:26;;;;;;;17.17;2.90;;;4.30;99.90;;;;;;4995998;28;20081;-84
2022/01/31 06:31:52;;;;;;;21.48;2.08;;;4.20;99.90;;;;;;5029780;28;20052;-84
2022/01/31 06:34:18;;;;;;;12.65;1.27;;;4.30;99.90;;;;;;5050196;28;20153;-83
2022/01/31 06:36:45;;;;;;;14.43;1.50;;;4.30;99.90;;;;;;5025703;28;20049;-85
2022/01/31 06:39:10;;;;;;;13.43;1.88;;;4.30;99.90;;;;;;5046991;28;20044;-86
2022/01/31 06:41:36;;;;;;;13.18;1.52;;;4.40;99.90;;;;;;5053962;28;20049;-85
2022/01/31 06:44:03;;;;;;;17.67;1.73;;;4.40;99.90;;;;;;5032652;28;20132;-85
2022/01/31 06:46:29;;;;;;;16.25;3.58;;;4.40;99.90;;;;;;5047072;28;20052;-89
2022/01/31 06:48:57;;;;;;;17.02;1.67;;;4.40;99.90;;;;;;5066787;28;20129;-86
2022/01/31 06:51:24;;;;;;;19.92;2.30;;;4.50;99.90;;;;;;5047564;28;20127;-85
2022/01/31 06:53:50;;;;;;;20.80;1.90;;;4.50;99.90;;;;;;5053683;28;20056;-85
2022/01/31 06:56:17;;;;;;;18.23;2.70;;;4.50;99.90;;;;;;5017933;28;20067;-84
2022/01/31 06:58:43;;;;;;;20.65;2.65;;;4.50;99.90;;;;;;5044919;28;20472;-84
2022/01/31 07:01:11;;;;;;;10.57;1.98;;;4.60;99.90;;;;;;5047691;28;20128;-84
2022/01/31 07:03:39;;;;;;;13.65;1.70;;;4.60;99.90;;;;;;5033338;28;20037;-83
2022/01/31 07:06:08;;;;;;;15.15;2.30;;;4.60;99.90;;;;;;5051892;28;20504;-83
2022/01/31 07:08:33;;;;;;;17.92;2.33;;;4.70;99.90;;;;;;5052076;28;20045;-83
2022/01/31 07:11:23;;;;;;;16.08;3.17;;;4.70;99.90;;;;;;5036771;28;20057;-83
2022/01/31 07:14:00;;;;;;;14.27;2.05;;;4.70;99.90;;;;;;5052692;28;20088;-83
2022/01/31 07:16:26;;;;;;;8.50;1.67;;;4.70;99.90;;;;;;5052710;28;20077;-84
2022/01/31 07:19:08;;;;;;;12.00;1.50;;;4.70;99.90;;;;;;5036174;28;20091;-83
2022/01/31 07:21:39;;;;;;;15.70;2.10;;;4.80;99.90;;;;;;5038420;28;20123;-84
2022/01/31 07:24:25;;;;;;;16.25;2.45;;;4.70;99.90;;;;;;5036620;28;20060;-84
2022/01/31 07:26:52;;;;;;;14.03;2.20;;;4.70;99.90;;;;;;5038783;28;20084;-84
2022/01/31 07:29:19;;;;;;;15.02;1.60;;;4.70;99.90;;;;;;5036257;28;20049;-83
2022/01/31 07:31:46;;;;;;;23.23;3.13;;;4.60;99.90;;;;;;5040993;28;20048;-84
2022/01/31 07:34:14;;;;;;;29.15;2.72;;;4.60;99.90;;;;;;5048209;28;20119;-83
2022/01/31 07:36:44;;;;;;;15.82;1.80;;;4.60;99.90;;;;;;5047938;28;20511;-84
2022/01/31 07:39:14;;;;;;;15.52;1.88;;;4.60;99.90;;;;;;5034073;28;20040;-85
2022/01/31 07:41:41;;;;;;;13.18;1.52;;;4.60;99.90;;;;;;5050109;28;20095;-86
2022/01/31 07:44:08;;;;;;;9.43;1.40;;;4.60;99.90;;;;;;5032007;28;20503;-83
2022/01/31 07:46:34;;;;;;;15.32;2.03;;;4.60;99.90;;;;;;5034507;28;20104;-84
2022/01/31 07:49:00;;;;;;;11.00;2.15;;;4.60;99.90;;;;;;5034022;28;20168;-84
2022/01/31 07:51:26;;;;;;;18.25;2.78;;;4.50;99.90;;;;;;5034962;28;20044;-83
2022/01/31 07:53:51;;;;;;;16.30;4.07;;;4.60;99.90;;;;;;5045563;28;20051;-81
2022/01/31 07:56:17;;;;;;;28.63;5.47;;;4.60;99.90;;;;;;5033458;28;20052;-84
2022/01/31 07:58:44;;;;;;;17.38;4.50;;;4.60;99.90;;;;;;5053263;28;20029;-82
2022/01/31 08:01:10;;;;;;;24.45;3.45;;;4.60;99.90;;;;;;5066285;28;20402;-83
2022/01/31 08:03:36;;;;;;;17.40;3.63;;;4.70;99.90;;;;;;5053601;28;20045;-88
2022/01/31 08:06:03;;;;;;;18.85;2.90;;;4.70;99.90;;;;;;5020181;28;20080;-82
2022/01/31 08:08:30;;;;;;;11.38;1.83;;;4.70;99.90;;;;;;5051679;28;20040;-82
2022/01/31 08:11:00;;;;;;;20.38;2.58;;;4.70;99.90;;;;;;5049195;28;20059;-82
2022/01/31 08:13:26;;;;;;;17.17;2.97;;;4.70;99.90;;;;;;5051644;28;20049;-83
2022/01/31 08:16:09;;;;;;;16.88;2.50;;;4.80;99.90;;;;;;5027762;28;20041;-83
2022/01/31 08:18:45;;;;;;;21.98;3.17;;;4.80;99.90;;;;;;5051338;28;20553;-83
2022/01/31 08:21:13;;;;;;;27.58;4.25;;;4.90;99.90;;;;;;5071043;28;20041;-82
2022/01/31 08:23:40;;;;;;;17.42;2.42;;;4.90;99.90;;;;;;5064969;28;20053;-85
2022/01/31 08:26:11;;;;;;;22.38;6.93;;;5.00;99.90;;;;;;5034741;28;20041;-82
2022/01/31 08:28:43;;;;;;;16.77;3.20;;;5.10;99.90;;;;;;5062752;28;20041;-82
2022/01/31 08:31:42;;;;;;;19.92;2.30;;;5.10;99.90;;;;;;5049790;28;20092;-82
2022/01/31 08:36:43;;;;;;;17.77;2.22;;;5.10;99.90;;;;;;5045181;28;20041;-85
2022/01/31 08:39:12;;;;;;;23.25;1.95;;;5.30;99.90;;;;;;5030769;28;20075;-83
2022/01/31 08:41:42;;;;;;;16.80;2.17;;;5.30;99.90;;;;;;5059348;28;20446;-82
2022/01/31 08:44:11;;;;;;;21.55;5.30;;;5.40;99.90;;;;;;5050994;28;20057;-82
2022/01/31 08:46:40;;;;;;;21.08;5.72;;;5.30;99.90;;;;;;5049733;28;20474;-83
2022/01/31 08:49:10;;;;;;;29.73;10.88;;;5.40;99.90;;;;;;5044777;28;20054;-83
2022/01/31 08:51:37;;;;;;;19.88;9.45;;;5.30;99.90;;;;;;5042128;28;20410;-81
2022/01/31 08:54:06;;;;;;;30.67;11.65;;;5.30;99.90;;;;;;5043194;28;20051;-82
2022/01/31 08:56:35;;;;;;;21.20;8.52;;;5.30;99.90;;;;;;5050790;28;20041;-83
2022/01/31 08:59:12;;;;;;;30.20;8.48;;;5.40;99.90;;;;;;5032225;28;20083;-84
2022/01/31 09:02:02;;;;;;;;;;;;;;;;;;;;;
2022/01/31 09:04:47;;;;;;;17.40;4.78;;;5.50;99.90;;;;;;5064425;28;20062;-84
2022/01/31 09:07:22;;;;;;;37.50;15.80;;;5.50;99.90;;;;;;5082612;28;20045;-84
2022/01/31 09:10:01;;;;;;;16.48;3.92;;;5.50;99.90;;;;;;5049407;28;20403;-82
2022/01/31 09:12:30;;;;;;;20.40;4.72;;;5.60;99.90;;;;;;5078689;28;20041;-83
2022/01/31 09:15:01;;;;;;;16.95;4.55;;;5.50;99.90;;;;;;5065023;28;20037;-83
2022/01/31 09:17:38;;;;;;;16.45;2.58;;;5.50;99.90;;;;;;5047694;28;20052;-85
2022/01/31 09:20:05;;;;;;;13.68;1.70;;;5.50;99.90;;;;;;5051186;28;20067;-82
2022/01/31 09:22:48;;;;;;;;;;;;;;;;;;;;;
2022/01/31 09:25:19;;;;;;;12.43;2.30;;;5.50;99.90;;;;;;5052556;28;20053;-83
2022/01/31 09:27:45;;;;;;;13.63;2.40;;;5.40;99.90;;;;;;5053572;28;20040;-85
2022/01/31 09:30:12;;;;;;;13.38;2.05;;;5.40;99.90;;;;;;5014529;28;20103;-85
2022/01/31 09:32:49;;;;;;;17.67;4.30;;;5.40;99.90;;;;;;5037645;28;20092;-84
2022/01/31 09:35:15;;;;;;;16.13;3.55;;;5.60;99.90;;;;;;5067760;28;20049;-84
2022/01/31 09:37:43;;;;;;;12.20;1.98;;;5.70;99.90;;;;;;5078146;28;20056;-84
2022/01/31 09:40:12;;;;;;;13.40;1.73;;;5.80;99.90;;;;;;5047090;28;20103;-83
2022/01/31 09:42:58;;;;;;;18.02;1.88;;;5.80;99.90;;;;;;5018264;28;20045;-83
2022/01/31 09:45:38;;;;;;;15.68;2.42;;;5.80;99.90;;;;;;5048280;28;20039;-83
2022/01/31 09:51:09;;;;;;;10.15;2.08;;;6.10;99.90;;;;;;5047078;28;20048;-84
2022/01/31 09:53:45;;;;;;;11.02;1.73;;;6.20;99.90;;;;;;5049058;28;20128;-84
2022/01/31 09:56:25;;;;;;;14.52;1.50;;;6.30;99.90;;;;;;5028974;28;20033;-83
2022/01/31 09:58:57;;;;;;;14.02;1.58;;;6.20;99.90;;;;;;5042897;28;20060;-86
2022/01/31 10:01:37;;;;;;;;;;;;;;;;;;;;;
2022/01/31 10:04:10;;;;;;;9.65;1.20;;;6.00;99.90;;;;;;5048639;28;20044;-83
2022/01/31 10:06:43;;;;;;;7.38;1.10;;;5.90;99.90;;;;;;5046807;28;20521;-83
2022/01/31 10:09:14;;;;;;;14.85;1.60;;;5.80;99.90;;;;;;5048249;28;20036;-83
2022/01/31 10:16:25;;;;;;;11.80;2.00;;;5.80;99.90;;;;;;5028295;28;20885;-83
2022/01/31 10:17:46;;;;;;;15.20;1.73;;;5.60;99.90;;;;;;5039166;28;20048;-84
2022/01/31 10:20:35;;;;;;;11.35;1.60;;;5.60;99.90;;;;;;5039724;28;20045;-83
2022/01/31 10:23:34;;;;;;;;;;;;;;;;;;;;;
2022/01/31 10:26:03;;;;;;;13.93;2.20;;;5.70;99.90;;;;;;5032133;28;20392;-84
2022/01/31 10:29:17;;;;;;;;;;;;;;;;;;;;;
2022/01/31 10:32:21;;;;;;;;;;;;;;;;;;;;;
2022/01/31 10:35:35;;;;;;;13.77;2.75;;;6.40;99.90;;;;;;5050450;28;20033;-84
2022/01/31 10:38:54;;;;;;;10.38;1.55;;;6.40;99.90;;;;;;5042582;28;20450;-84
2022/01/31 10:45:24;;;;;;;12.00;1.80;;;6.40;99.90;;;;;;5045463;28;20106;-84
2022/01/31 10:53:17;;;;;;;12.02;1.77;;;6.50;99.90;;;;;;5022730;28;20103;-84
2022/01/31 10:55:55;;;;;;;11.73;1.48;;;6.50;99.90;;;;;;5039545;28;20049;-82
2022/01/31 10:59:03;;;;;;;13.68;1.98;;;6.60;99.90;;;;;;5052993;28;20061;-83
2022/01/31 11:01:44;;;;;;;;;;;;;;;;;;;;;
2022/01/31 11:04:25;;;;;;;;;;;;;;;;;;;;;
2022/01/31 11:10:47;;;;;;;17.52;1.45;;;6.60;99.90;;;;;;5039692;28;20061;-83
2022/01/31 11:13:30;;;;;;;9.07;1.60;;;6.60;99.90;;;;;;5040508;28;20057;-81
2022/01/31 11:16:25;;;;;;;6.68;1.27;;;6.60;99.90;;;;;;5040687;28;20046;-86
2022/01/31 11:18:58;;;;;;;12.48;1.40;;;6.50;99.90;;;;;;5032257;28;20100;-84
2022/01/31 11:21:39;;;;;;;;;;;;;;;;;;;;;
2022/01/31 11:24:23;;;;;;;10.35;1.45;;;6.30;99.90;;;;;;5055535;28;20053;-86
2022/01/31 11:26:51;;;;;;;11.57;1.40;;;6.40;99.90;;;;;;5049430;28;20049;-82
2022/01/31 11:29:17;;;;;;;18.23;2.28;;;6.40;99.90;;;;;;5062616;28;20041;-84
2022/01/31 11:31:47;;;;;;;16.80;1.92;;;6.30;99.90;;;;;;5035940;28;20053;-84
2022/01/31 11:34:13;;;;;;;11.52;1.23;;;6.40;99.90;;;;;;5047966;28;20056;-83
2022/01/31 11:36:45;;;;;;;13.10;1.33;;;6.50;99.90;;;;;;5051878;28;20051;-83
2022/01/31 11:39:28;;;;;;;9.88;1.80;;;6.70;99.90;;;;;;5035913;28;20502;-84
2022/01/31 11:42:12;;;;;;;;;;;6.90;99.90;;;;;;5067818;28;20048;-84
2022/01/31 11:44:47;;;;;;;13.40;2.38;;;7.10;99.90;;;;;;5082105;28;19971;-83
2022/01/31 11:47:16;;;;;;;14.82;2.83;;;7.00;99.90;;;;;;5046713;28;20057;-87
2022/01/31 11:50:09;;;;;;;8.13;2.10;;;7.20;99.90;;;;;;5046673;28;20065;-83
2022/01/31 11:53:00;;;;;;;14.02;1.95;;;7.40;99.90;;;;;;5052407;28;20040;-85
2022/01/31 11:55:45;;;;;;;;;;;;;;;;;;;;;
2022/01/31 11:58:17;;;;;;;24.13;2.97;;;7.40;99.90;;;;;;5032693;28;20053;-83
2022/01/31 12:00:47;;;;;;;13.45;1.80;;;7.60;99.90;;;;;;5052100;28;20080;-84
2022/01/31 12:03:40;;;;;;;13.75;2.20;;;7.60;99.90;;;;;;5033808;28;20056;-83
2022/01/31 12:06:18;;;;;;;9.85;1.65;;;7.50;99.90;;;;;;5055107;28;20375;-86
2022/01/31 12:08:56;;;;;;;19.25;2.85;;;7.70;99.90;;;;;;5043157;28;20049;-84
2022/01/31 12:11:54;;;;;;;15.63;2.55;;;7.80;99.90;;;;;;5033574;28;20053;-83
2022/01/31 12:14:38;;;;;;;17.20;2.13;;;7.60;99.90;;;;;;5070409;28;20053;-85
2022/01/31 12:17:48;;;;;;;18.58;2.53;;;7.50;99.90;;;;;;5039353;28;20183;-86
2022/01/31 12:23:37;;;;;;;13.27;1.50;;;7.60;99.90;;;;;;5068556;28;20049;-83
2022/01/31 12:26:24;;;;;;;17.38;2.10;;;7.60;99.90;;;;;;5046749;28;20053;-83
2022/01/31 12:28:58;;;;;;;13.48;2.53;;;7.50;99.90;;;;;;5055253;28;20858;-83
2022/01/31 12:31:30;;;;;;;9.05;1.45;;;7.60;99.90;;;;;;5051100;28;20486;-83
2022/01/31 12:33:57;;;;;;;22.08;2.33;;;7.60;99.90;;;;;;5052071;28;20049;-84
2022/01/31 12:36:34;;;;;;;15.18;3.15;;;7.60;99.90;;;;;;5048999;28;20098;-83
2022/01/31 12:39:02;;;;;;;15.73;2.08;;;7.60;99.90;;;;;;5021968;28;20087;-84
2022/01/31 12:41:33;;;;;;;13.80;1.85;;;7.60;99.90;;;;;;5047076;28;20685;-84
2022/01/31 12:44:33;;;;;;;15.30;1.48;;;7.90;99.90;;;;;;5048810;28;20053;-84
2022/01/31 12:47:09;;;;;;;13.85;2.55;;;8.00;99.90;;;;;;5045341;28;20044;-83
2022/01/31 12:49:34;;;;;;;11.77;2.25;;;8.00;99.90;;;;;;5046604;28;20048;-84
2022/01/31 12:52:08;;;;;;;19.88;2.55;;;8.10;99.90;;;;;;5051938;28;20478;-83
2022/01/31 12:54:38;;;;;;;13.43;2.13;;;8.00;99.90;;;;;;5067242;28;20045;-83
2022/01/31 12:57:10;;;;;;;13.27;2.20;;;7.90;99.90;;;;;;5067106;28;20426;-83
2022/01/31 12:59:39;;;;;;;22.65;2.78;;;8.00;99.90;;;;;;5050236;28;20060;-83
2022/01/31 13:02:09;;;;;;;10.20;1.80;;;8.00;99.90;;;;;;5034057;28;20045;-83
2022/01/31 13:04:37;;;;;;;15.27;1.75;;;8.00;99.90;;;;;;5037997;28;20052;-85
2022/01/31 13:07:04;;;;;;;17.48;2.25;;;7.90;99.90;;;;;;5040309;28;20243;-83
2022/01/31 13:09:35;;;;;;;17.40;2.38;;;7.90;99.90;;;;;;5052643;28;20047;-83
2022/01/31 13:12:15;;;;;;;28.38;3.03;;;7.90;99.90;;;;;;5010121;28;20088;-84
2022/01/31 13:14:52;;;;;;;16.02;1.90;;;8.00;99.90;;;;;;4997105;28;20045;-84
2022/01/31 13:17:24;;;;;;;23.00;2.35;;;8.00;99.90;;;;;;4997726;28;20052;-83
2022/01/31 13:19:52;;;;;;;18.88;2.20;;;8.00;99.90;;;;;;4997110;28;20087;-83
2022/01/31 13:22:27;;;;;;;23.85;2.85;;;8.00;99.90;;;;;;5004731;28;20060;-83
2022/01/31 13:24:56;;;;;;;13.38;2.10;;;8.00;99.90;;;;;;5004474;28;20503;-83
2022/01/31 13:27:33;;;;;;;15.88;3.58;;;7.90;99.90;;;;;;5023833;28;20068;-84
2022/01/31 13:30:00;;;;;;;20.40;2.20;;;7.80;99.90;;;;;;5019315;28;20494;-82
2022/01/31 13:32:33;;;;;;;16.65;2.33;;;7.70;99.90;;;;;;5008970;28;20116;-83
2022/01/31 13:35:37;;;;;;;14.93;2.22;;;7.50;99.90;;;;;;5013624;28;20080;-84
2022/01/31 13:38:09;;;;;;;18.80;2.50;;;7.30;99.90;;;;;;4982391;28;20062;-83
2022/01/31 13:40:48;;;;;;;14.73;2.10;;;7.30;99.90;;;;;;4994406;28;20177;-83
2022/01/31 13:43:22;;;;;;;20.35;2.83;;;7.30;99.90;;;;;;5012222;28;20595;-83